タヒチ島 の空港の天気 - METARとTAF

タヒチ・ファアア国際空港 ( NTAA / PPT ) - フランス領ポリネシア タヒチ島
飛行場実況気象(Metar)
観測時間02/21 06:07 TAHT (02/21 16:07 UTC)
風向・風速南南西 2m/s
視程10km以上
天気現象
少しの雲 雲底高度 700m
気温26℃
湿度84%
気圧1013hPa
METARNTAA 211607Z 21003KT 9999 FEW023 26/23 Q1013 NOSIG
過去の天気等 Google飛行場航空写真 Wunderground天気予報

過去48時間のMETAR

飛行場予報(TAF)
発表時間: 2/21 01:00 TAHT (2/21 11:00 UTC)
予報対象時間: 21日2時 TAHT ~ 22日8時 TAHT
風向・風速不定 3m/s
視程10km以上
少しの雲 雲底高度 700m
全天の4割程度の雲 雲底高度 1520m
TAF NTAA 211100Z 2112/2218 VRB05KT 9999 FEW023 SCT050